WEATHER/FLIGHT PLANNING

Hattiesburg Radar

 

 

 

 

Weather Links

Flight Planning Links

 

METAR

2014/07/23 17:53 KHBG 231753Z AUTO 00000KT 10SM CLR 30/23 A3007 RMK AO2 SLP179 T03000228 10300 20200 58007

TAF

2014/07/23 18:24 TAF KHBG 231723Z 2318/2418 10005KT P6SM VCTS SCT035CB BKN250 FM240300 00000KT 6SM BR SCT250 FM240600 00000KT 3SM BR SCT003 FM241100 00000KT 1SM BR OVC003 FM241300 26003KT 4SM BR SCT004 FM241500 27004KT P6SM SCT250